METAR Data
IDs: Format: Raw Decoded Include TAF

Data at: 2327 UTC 30 Jun 2022

METAR for:KCDN (Camden/Woodward Fld, SC, US)
Text:KCDN 302315Z AUTO 12005KT 10SM CLR 27/22 A3017 RMK AO2
Temperature: 27.0°C ( 81°F)
Dewpoint: 22.0°C ( 72°F) [RH = 74%]
Pressure (altimeter):30.17 inches Hg (1021.8 mb)
Winds:from the ESE (120 degrees) at 6 MPH (5 knots; 2.6 m/s)
Visibility:10 or more sm (16+ km)
Ceiling:at least 12,000 feet AGL
Clouds:sky clear below 12,000 feet AGL
QC Flag:automated observation with no human augmentation

TAF for:KCDN (Camden/Woodward Fld, SC, US)
Text:No data found